Time;durP1;ratioP1;P1;durP2;ratioP2;P2;SDS_P1;SDS_P2;PMS_P1;PMS_P2;Temp;Humidity;BMP_temperature;BMP_pressure;BME280_temperature;BME280_humidity;BME280_pressure;Samples;Min_cycle;Max_cycle;Signal;HPM_P1;HPM_P2
2021/12/12 00:03:01;;;;;;;61.87;28.97;;;-3.10;99.90;;;;;;10512146;28;20207;-79
2021/12/12 00:08:24;;;;;;;60.77;29.23;;;-3.30;99.90;;;;;;10511703;28;20200;-79
2021/12/12 00:13:54;;;;;;;58.40;28.53;;;-3.30;99.90;;;;;;10506079;28;20200;-79
2021/12/12 00:19:17;;;;;;;58.73;26.90;;;-3.40;99.90;;;;;;10525144;28;20456;-79
2021/12/12 00:24:40;;;;;;;61.83;27.20;;;-3.40;99.90;;;;;;10525676;28;20188;-79
2021/12/12 00:30:05;;;;;;;61.90;27.53;;;-3.50;99.90;;;;;;10524557;28;20208;-80
2021/12/12 00:35:28;;;;;;;62.03;29.17;;;-3.50;99.90;;;;;;10507948;28;20238;-79
2021/12/12 00:40:53;;;;;;;64.77;28.50;;;-3.60;99.90;;;;;;10489359;28;20544;-80
2021/12/12 00:46:17;;;;;;;64.07;28.10;;;-3.60;99.90;;;;;;10493406;28;20203;-80
2021/12/12 00:51:42;;;;;;;53.00;25.47;;;-3.50;99.90;;;;;;10524624;28;20201;-80
2021/12/12 00:57:08;;;;;;;57.10;26.57;;;-3.40;99.90;;;;;;10506771;28;20405;-79
2021/12/12 01:02:30;;;;;;;64.03;26.57;;;-3.30;99.90;;;;;;10509180;28;20191;-80
2021/12/12 01:07:53;;;;;;;63.40;28.30;;;-3.20;99.90;;;;;;10491793;28;20264;-79
2021/12/12 01:13:15;;;;;;;61.27;26.50;;;-3.20;99.90;;;;;;10491472;28;20212;-80
2021/12/12 01:18:43;;;;;;;65.93;28.77;;;-3.40;99.90;;;;;;10492198;28;20459;-79
2021/12/12 01:24:31;;;;;;;72.50;33.50;;;-3.30;99.90;;;;;;10491696;28;20486;-80
2021/12/12 01:29:53;;;;;;;71.33;30.90;;;-3.40;99.90;;;;;;10502041;28;20270;-79
2021/12/12 01:35:18;;;;;;;65.87;28.73;;;-3.50;99.90;;;;;;10508613;28;20200;-79
2021/12/12 01:40:43;;;;;;;67.33;28.33;;;-3.40;99.90;;;;;;10504743;28;20247;-79
2021/12/12 01:46:18;;;;;;;65.37;28.10;;;-3.10;99.90;;;;;;10507692;28;20496;-79
2021/12/12 01:51:43;;;;;;;64.87;29.67;;;-3.10;99.90;;;;;;10507219;28;20195;-79
2021/12/12 01:57:06;;;;;;;68.23;28.83;;;-3.10;99.90;;;;;;10490410;28;20257;-80
2021/12/12 02:02:32;;;;;;;61.93;28.10;;;-3.10;99.90;;;;;;10521951;28;20204;-79
2021/12/12 02:08:01;;;;;;;67.03;29.23;;;-3.00;99.90;;;;;;10484636;28;20507;-79
2021/12/12 02:13:26;;;;;;;65.23;28.33;;;-3.00;99.90;;;;;;10494423;28;20231;-80
2021/12/12 02:18:52;;;;;;;58.73;26.40;;;-3.00;99.90;;;;;;10482746;28;20250;-79
2021/12/12 02:35:31;;;;;;;65.33;29.03;;;-3.00;99.90;;;;;;10482701;28;20201;-80
2021/12/12 02:41:05;;;;;;;70.63;31.50;;;-2.90;99.90;;;;;;10502311;28;20253;-80
2021/12/12 02:46:33;;;;;;;74.27;30.07;;;-2.90;99.90;;;;;;10487878;28;20422;-79
2021/12/12 02:51:55;;;;;;;72.63;31.57;;;-2.90;99.90;;;;;;10520126;28;20199;-79
2021/12/12 02:57:18;;;;;;;82.53;34.57;;;-2.90;99.90;;;;;;10502405;28;20207;-78
2021/12/12 03:02:45;;;;;;;78.00;31.03;;;-2.80;99.90;;;;;;10488112;28;20208;-78
2021/12/12 03:08:08;;;;;;;84.57;33.10;;;-2.80;99.90;;;;;;10488303;28;20214;-78
2021/12/12 03:13:31;;;;;;;78.10;32.33;;;-2.80;99.90;;;;;;10504740;28;20197;-78
2021/12/12 03:18:55;;;;;;;79.87;32.23;;;-2.80;99.90;;;;;;10498779;28;20246;-78
2021/12/12 03:24:25;;;;;;;77.20;30.60;;;-2.90;99.90;;;;;;10497957;28;20406;-78
2021/12/12 03:29:50;;;;;;;69.40;31.53;;;-2.90;99.90;;;;;;10515220;28;20408;-78
2021/12/12 03:35:13;;;;;;;71.57;32.23;;;-2.90;99.90;;;;;;10531852;28;20389;-78
2021/12/12 03:40:39;;;;;;;74.47;31.23;;;-2.90;99.90;;;;;;10518047;28;20435;-78
2021/12/12 03:46:05;;;;;;;67.30;29.37;;;-2.70;99.90;;;;;;10517963;28;20265;-78
2021/12/12 03:51:29;;;;;;;67.87;29.47;;;-2.70;99.90;;;;;;10487029;28;20382;-78
2021/12/12 03:56:51;;;;;;;70.87;31.20;;;-2.70;99.90;;;;;;10497200;28;20422;-78
2021/12/12 04:02:15;;;;;;;68.57;29.37;;;-2.70;99.90;;;;;;10500772;28;20237;-78
2021/12/12 04:07:37;;;;;;;74.77;30.97;;;-2.60;99.90;;;;;;10492264;28;20207;-78
2021/12/12 04:12:59;;;;;;;73.03;29.13;;;-2.70;99.90;;;;;;10495408;28;20209;-78
2021/12/12 04:18:24;;;;;;;69.97;30.00;;;-2.50;99.90;;;;;;10514278;28;20231;-78
2021/12/12 04:23:47;;;;;;;76.20;31.00;;;-2.50;99.90;;;;;;10500370;28;20212;-78
2021/12/12 04:29:13;;;;;;;74.47;30.07;;;-2.50;99.90;;;;;;10496810;28;20193;-78
2021/12/12 04:34:38;;;;;;;75.73;29.93;;;-2.50;99.90;;;;;;10526839;28;20229;-80
2021/12/12 04:40:01;;;;;;;70.17;30.73;;;-2.40;99.90;;;;;;10493400;28;20246;-79
2021/12/12 04:45:47;;;;;;;76.43;29.83;;;-2.30;99.90;;;;;;10507183;28;20414;-79
2021/12/12 04:51:21;;;;;;;74.20;29.90;;;-2.20;99.90;;;;;;10524937;28;20220;-80
2021/12/12 04:56:59;;;;;;;71.27;29.83;;;-2.20;99.90;;;;;;10458897;28;20237;-80
2021/12/12 05:02:28;;;;;;;71.50;32.00;;;-2.20;99.90;;;;;;10492529;28;20233;-79
2021/12/12 05:08:18;;;;;;;68.93;30.63;;;-2.20;99.90;;;;;;10497248;28;20196;-78
2021/12/12 05:14:05;;;;;;;79.50;32.67;;;-2.10;99.90;;;;;;10495231;28;20208;-79
2021/12/12 05:19:29;;;;;;;72.80;31.13;;;-2.10;99.90;;;;;;10489655;28;20531;-78
2021/12/12 05:24:52;;;;;;;75.33;31.03;;;-2.10;99.90;;;;;;10514236;28;20197;-77
2021/12/12 05:30:23;;;;;;;66.97;30.57;;;-2.10;99.90;;;;;;10507857;28;20201;-80
2021/12/12 05:35:46;;;;;;;75.27;32.37;;;-2.00;99.90;;;;;;10491201;28;20374;-80
2021/12/12 05:41:10;;;;;;;69.80;29.93;;;-2.00;99.90;;;;;;10504347;28;20286;-79
2021/12/12 05:46:32;;;;;;;80.77;32.87;;;-2.00;99.90;;;;;;10507612;28;20193;-79
2021/12/12 05:51:55;;;;;;;80.27;36.80;;;-2.00;99.90;;;;;;10507806;28;20201;-79
2021/12/12 05:57:23;;;;;;;75.93;36.00;;;-2.00;99.90;;;;;;10507431;28;20196;-79
2021/12/12 06:02:45;;;;;;;74.70;32.57;;;-1.90;99.90;;;;;;10475402;28;20236;-79
2021/12/12 06:08:08;;;;;;;77.83;31.90;;;-1.90;99.90;;;;;;10502443;28;20193;-79
2021/12/12 06:13:31;;;;;;;80.60;32.90;;;-1.80;99.90;;;;;;10476095;28;20205;-79
2021/12/12 06:18:59;;;;;;;79.60;32.37;;;-1.80;99.90;;;;;;10503486;28;20263;-79
2021/12/12 06:24:23;;;;;;;76.67;32.53;;;-1.90;99.90;;;;;;10505593;28;20253;-79
2021/12/12 06:29:48;;;;;;;80.70;34.60;;;-1.80;99.90;;;;;;10520761;28;20250;-79
2021/12/12 06:35:11;;;;;;;81.20;37.87;;;-1.90;99.90;;;;;;10520944;28;20549;-79
2021/12/12 06:40:34;;;;;;;83.97;37.30;;;-1.80;99.90;;;;;;10505083;28;20334;-79
2021/12/12 06:45:58;;;;;;;85.90;34.83;;;-1.90;99.90;;;;;;10501665;28;20208;-79
2021/12/12 06:51:21;;;;;;;77.07;33.60;;;-1.90;99.90;;;;;;10520530;28;20197;-79
2021/12/12 06:56:48;;;;;;;86.67;36.47;;;-1.90;99.90;;;;;;10500756;28;20381;-79
2021/12/12 07:02:10;;;;;;;83.60;36.03;;;-1.80;99.90;;;;;;10519914;28;20232;-78
2021/12/12 07:07:33;;;;;;;85.63;35.53;;;-1.90;99.90;;;;;;10474388;28;20196;-79
2021/12/12 07:12:56;;;;;;;95.00;37.67;;;-1.80;99.90;;;;;;10504441;28;20197;-79
2021/12/12 07:18:22;;;;;;;96.53;38.43;;;-1.90;99.90;;;;;;10519636;28;20491;-79
2021/12/12 07:23:46;;;;;;;99.40;41.77;;;-1.90;99.90;;;;;;10486914;28;20200;-79
2021/12/12 07:29:09;;;;;;;111.47;46.17;;;-1.90;99.90;;;;;;10504641;28;20201;-79
2021/12/12 07:34:33;;;;;;;133.97;55.53;;;-1.80;99.90;;;;;;10519339;28;20204;-79
2021/12/12 07:39:55;;;;;;;100.07;43.80;;;-1.70;99.90;;;;;;10503981;28;20591;-79
2021/12/12 07:45:20;;;;;;;103.73;43.10;;;-1.50;99.90;;;;;;10480595;28;20513;-80
2021/12/12 07:50:45;;;;;;;110.67;42.83;;;-1.40;99.90;;;;;;10483943;28;20258;-80
2021/12/12 07:56:07;;;;;;;110.00;42.87;;;-1.40;99.90;;;;;;10485121;28;20204;-80
2021/12/12 08:01:30;;;;;;;102.93;41.67;;;-1.50;99.90;;;;;;10503849;28;20265;-79
2021/12/12 08:06:53;;;;;;;104.03;43.53;;;-1.50;99.90;;;;;;10486849;28;20500;-79
2021/12/12 08:12:19;;;;;;;101.03;37.93;;;-1.50;99.90;;;;;;10511594;28;20409;-79
2021/12/12 08:17:42;;;;;;;103.13;39.27;;;-1.30;99.90;;;;;;10494582;28;20210;-80
2021/12/12 08:23:05;;;;;;;111.33;43.23;;;-1.20;99.90;;;;;;10472688;28;20394;-78
2021/12/12 08:28:28;;;;;;;101.83;40.13;;;-1.10;99.90;;;;;;10503311;28;20212;-79
2021/12/12 08:33:50;;;;;;;103.73;40.27;;;-1.00;99.90;;;;;;10510887;28;20204;-79
2021/12/12 08:39:13;;;;;;;95.13;38.80;;;-0.90;99.90;;;;;;10507166;28;20312;-79
2021/12/12 08:44:36;;;;;;;111.50;45.33;;;-1.00;99.90;;;;;;10525430;28;20209;-79
2021/12/12 08:49:58;;;;;;;88.67;38.67;;;-0.90;99.90;;;;;;10525141;28;20267;-79
2021/12/12 08:55:31;;;;;;;108.27;47.10;;;-0.80;99.90;;;;;;10488965;28;20202;-77
2021/12/12 09:01:05;;;;;;;91.97;39.53;;;-0.60;99.90;;;;;;10506732;28;20236;-79
2021/12/12 09:06:34;;;;;;;83.23;36.70;;;-0.60;99.90;;;;;;10492388;28;20221;-78
2021/12/12 09:12:08;;;;;;;91.80;39.67;;;-0.60;99.90;;;;;;10509451;28;20284;-77
2021/12/12 09:17:33;;;;;;;73.93;31.23;;;-0.70;99.90;;;;;;10506280;28;20252;-77
2021/12/12 09:23:06;;;;;;;83.33;36.83;;;-0.80;99.90;;;;;;10472852;28;20225;-77
2021/12/12 09:28:44;;;;;;;85.67;36.00;;;-0.70;99.90;;;;;;10491892;28;20213;-78
2021/12/12 09:34:19;;;;;;;76.93;31.80;;;-0.60;99.90;;;;;;10505065;28;20204;-78
2021/12/12 09:39:50;;;;;;;83.73;38.10;;;-0.50;99.90;;;;;;10508119;28;20234;-78
2021/12/12 09:45:37;;;;;;;85.00;37.50;;;-0.20;99.90;;;;;;10491449;28;20402;-77
2021/12/12 09:51:29;;;;;;;124.47;45.37;;;0.00;99.90;;;;;;10504413;28;20212;-77
2021/12/12 09:56:56;;;;;;;92.57;37.77;;;0.00;99.90;;;;;;10504011;28;20269;-77
2021/12/12 10:02:30;;;;;;;80.27;33.90;;;-0.20;99.90;;;;;;10507324;28;20249;-77
2021/12/12 10:08:35;;;;;;;95.90;40.00;;;-0.10;99.90;;;;;;10504186;28;20562;-78
2021/12/12 10:14:05;;;;;;;106.57;40.20;;;0.00;99.90;;;;;;10470569;28;20225;-77
2021/12/12 10:19:44;;;;;;;91.10;36.10;;;0.00;99.90;;;;;;10506339;28;20579;-78
2021/12/12 10:25:21;;;;;;;91.87;37.03;;;0.00;99.90;;;;;;10505704;28;20202;-77
2021/12/12 10:30:53;;;;;;;83.07;34.00;;;-0.10;99.90;;;;;;10515975;28;20198;-77
2021/12/12 10:36:21;;;;;;;81.40;34.30;;;0.10;99.90;;;;;;10487832;28;20257;-77
2021/12/12 10:42:00;;;;;;;82.70;33.57;;;0.00;99.90;;;;;;10476874;28;20245;-78
2021/12/12 10:47:43;;;;;;;81.47;32.50;;;0.10;99.90;;;;;;10518858;28;20211;-77
2021/12/12 10:53:11;;;;;;;86.57;38.67;;;0.10;99.90;;;;;;10491795;28;20230;-78
2021/12/12 10:58:46;;;;;;;75.23;32.60;;;0.20;99.90;;;;;;10469368;28;20227;-76
2021/12/12 11:04:25;;;;;;;88.57;35.97;;;0.50;99.90;;;;;;10516124;28;20515;-77
2021/12/12 11:10:01;;;;;;;77.77;33.83;;;0.60;99.90;;;;;;10519575;28;20199;-75
2021/12/12 11:15:35;;;;;;;74.07;31.07;;;0.50;99.90;;;;;;10514389;28;20201;-74
2021/12/12 11:21:23;;;;;;;69.47;29.97;;;0.50;99.90;;;;;;10516730;28;20218;-77
2021/12/12 11:26:52;;;;;;;60.17;25.50;;;0.40;99.90;;;;;;10516922;28;20195;-77
2021/12/12 11:32:19;;;;;;;65.50;29.77;;;0.50;99.90;;;;;;10515965;28;20191;-76
2021/12/12 11:38:01;;;;;;;66.90;29.83;;;0.50;99.90;;;;;;10503059;28;20225;-74
2021/12/12 11:43:43;;;;;;;73.57;30.40;;;0.50;99.90;;;;;;10518753;28;20229;-80
2021/12/12 11:49:11;;;;;;;88.67;38.37;;;0.50;99.90;;;;;;10527354;28;20191;-80
2021/12/12 11:54:49;;;;;;;93.60;38.67;;;0.50;99.90;;;;;;10532271;28;20203;-80
2021/12/12 12:00:19;;;;;;;71.50;33.23;;;0.40;99.90;;;;;;10526741;28;20221;-80
2021/12/12 12:06:02;;;;;;;71.87;32.60;;;0.50;99.90;;;;;;10526703;28;20259;-79
2021/12/12 12:11:59;;;;;;;72.57;34.23;;;0.50;99.90;;;;;;10506623;28;20201;-80
2021/12/12 12:17:35;;;;;;;61.87;29.23;;;0.60;99.90;;;;;;10524897;28;20213;-79
2021/12/12 12:23:16;;;;;;;57.67;26.77;;;0.70;99.90;;;;;;10524394;28;20223;-79
2021/12/12 12:28:51;;;;;;;70.87;29.17;;;0.80;99.90;;;;;;10510586;28;20238;-78
2021/12/12 12:34:39;;;;;;;61.00;26.83;;;0.90;99.90;;;;;;10498054;28;20273;-78
2021/12/12 12:40:38;;;;;;;77.77;32.13;;;1.00;99.90;;;;;;10496308;28;20308;-78
2021/12/12 12:46:39;;;;;;;73.13;31.97;;;1.10;99.90;;;;;;10491853;28;20501;-78
2021/12/12 12:52:48;;;;;;;62.70;28.63;;;1.20;99.90;;;;;;10524211;28;20413;-78
2021/12/12 12:58:18;;;;;;;64.50;30.70;;;1.10;99.90;;;;;;10508777;28;20203;-78
2021/12/12 13:04:27;;;;;;;70.20;31.87;;;1.10;99.90;;;;;;10460744;28;20313;-77
2021/12/12 13:09:57;;;;;;;64.10;30.43;;;1.10;99.90;;;;;;10509527;28;20304;-77
2021/12/12 13:15:35;;;;;;;76.33;35.90;;;1.20;99.90;;;;;;10491939;28;20225;-79
2021/12/12 13:21:03;;;;;;;72.80;31.80;;;1.20;99.90;;;;;;10523054;28;20219;-79
2021/12/12 13:26:43;;;;;;;66.07;30.63;;;1.10;99.90;;;;;;10508715;28;20195;-78
2021/12/12 13:32:35;;;;;;;77.60;35.60;;;1.00;99.90;;;;;;10475031;28;20195;-79
2021/12/12 13:38:14;;;;;;;84.27;37.70;;;0.90;99.90;;;;;;10523250;28;20385;-78
2021/12/12 13:44:06;;;;;;;83.47;37.80;;;1.00;99.90;;;;;;10508161;28;20250;-78
2021/12/12 13:49:41;;;;;;;99.00;46.73;;;0.90;99.90;;;;;;10505366;28;20497;-78
2021/12/12 13:55:09;;;;;;;100.83;42.87;;;0.80;99.90;;;;;;10464440;28;20303;-79
2021/12/12 14:00:43;;;;;;;80.67;38.10;;;0.70;99.90;;;;;;10504402;28;20417;-79
2021/12/12 14:06:15;;;;;;;57.70;30.70;;;0.70;99.90;;;;;;10507082;28;20203;-79
2021/12/12 14:11:41;;;;;;;78.43;38.47;;;0.60;99.90;;;;;;10486986;28;20392;-79
2021/12/12 14:17:11;;;;;;;67.13;31.93;;;0.50;99.90;;;;;;10490028;28;20203;-79
2021/12/12 14:22:33;;;;;;;64.37;30.23;;;0.50;99.90;;;;;;10520717;28;20229;-80
2021/12/12 14:27:59;;;;;;;61.93;30.70;;;0.40;99.90;;;;;;10521112;28;20196;-80
2021/12/12 14:33:35;;;;;;;67.00;34.20;;;0.40;99.90;;;;;;10489414;28;20452;-79
2021/12/12 14:38:59;;;;;;;57.97;28.47;;;0.30;99.90;;;;;;10484268;28;20225;-78
2021/12/12 14:44:27;;;;;;;64.10;31.20;;;0.30;99.90;;;;;;10520879;28;20199;-80
2021/12/12 14:49:56;;;;;;;73.23;35.73;;;0.40;99.90;;;;;;10488456;28;20497;-80
2021/12/12 14:55:39;;;;;;;74.40;33.73;;;0.50;99.90;;;;;;10501179;28;20201;-79
2021/12/12 15:01:12;;;;;;;68.53;31.63;;;0.40;99.90;;;;;;10504956;28;20230;-80
2021/12/12 15:06:47;;;;;;;74.80;34.57;;;0.40;99.90;;;;;;10519963;28;20248;-79
2021/12/12 15:12:26;;;;;;;89.80;42.67;;;0.40;99.90;;;;;;10474234;28;20205;-80
2021/12/12 15:17:53;;;;;;;97.27;42.47;;;0.30;99.90;;;;;;10501200;28;20207;-80
2021/12/12 15:23:23;;;;;;;84.10;35.57;;;0.30;99.90;;;;;;10502752;28;20219;-80
2021/12/12 15:28:48;;;;;;;69.67;33.30;;;0.30;99.90;;;;;;10501830;28;20385;-79
2021/12/12 15:34:15;;;;;;;99.63;46.00;;;0.30;99.90;;;;;;10504554;28;20211;-78
2021/12/12 15:39:47;;;;;;;117.07;53.23;;;0.30;99.90;;;;;;10504092;28;20257;-80
2021/12/12 15:45:17;;;;;;;104.43;48.03;;;0.20;99.90;;;;;;10504554;28;20269;-80
2021/12/12 15:50:39;;;;;;;105.83;43.23;;;0.10;99.90;;;;;;10484630;28;20245;-79
2021/12/12 15:56:10;;;;;;;97.43;41.40;;;0.10;99.90;;;;;;10488947;28;20234;-79
2021/12/12 16:01:37;;;;;;;86.17;36.53;;;0.00;99.90;;;;;;10483670;28;20235;-79
2021/12/12 16:07:13;;;;;;;91.87;38.13;;;0.10;99.90;;;;;;10502677;28;20191;-79
2021/12/12 16:12:46;;;;;;;102.77;40.40;;;0.10;99.90;;;;;;10478536;28;20237;-79
2021/12/12 16:18:11;;;;;;;113.10;42.57;;;0.10;99.90;;;;;;10503707;28;20199;-79
2021/12/12 16:23:33;;;;;;;120.13;50.20;;;0.00;99.90;;;;;;10483957;28;20239;-79
2021/12/12 16:28:59;;;;;;;113.90;47.77;;;0.10;99.90;;;;;;10503782;28;20202;-79
2021/12/12 16:34:24;;;;;;;107.23;46.23;;;0.10;99.90;;;;;;10509568;28;20209;-78
2021/12/12 16:39:49;;;;;;;116.73;44.40;;;0.20;99.90;;;;;;10487807;28;20296;-79
2021/12/12 16:45:34;;;;;;;138.47;57.20;;;0.20;99.90;;;;;;10525364;28;20201;-78
2021/12/12 16:50:59;;;;;;;130.30;53.70;;;0.10;99.90;;;;;;10469144;28;20202;-78
2021/12/12 16:56:22;;;;;;;134.50;51.47;;;0.10;99.90;;;;;;10509459;28;20198;-79
2021/12/12 17:01:47;;;;;;;132.07;53.07;;;0.20;99.90;;;;;;10458708;28;20226;-79
2021/12/12 17:07:13;;;;;;;129.83;49.87;;;0.20;99.90;;;;;;10524365;28;20266;-79
2021/12/12 17:12:40;;;;;;;134.17;50.80;;;0.20;99.90;;;;;;10492882;28;20269;-79
2021/12/12 17:18:12;;;;;;;118.47;48.60;;;0.20;99.90;;;;;;10506547;28;20296;-80
2021/12/12 17:23:41;;;;;;;127.87;48.93;;;0.20;99.90;;;;;;10484737;28;20529;-78
2021/12/12 17:29:08;;;;;;;108.07;42.73;;;0.30;99.90;;;;;;10516352;28;20493;-79
2021/12/12 17:34:53;;;;;;;103.77;38.30;;;0.20;99.90;;;;;;10523264;28;20195;-79
2021/12/12 17:40:20;;;;;;;104.40;40.00;;;0.20;99.90;;;;;;10507718;28;20296;-79
2021/12/12 17:46:16;;;;;;;96.80;38.67;;;0.20;99.90;;;;;;10491221;28;20213;-78
2021/12/12 17:52:15;;;;;;;91.43;35.90;;;0.30;99.90;;;;;;10507819;28;20201;-79
2021/12/12 17:57:44;;;;;;;105.77;39.60;;;0.30;99.90;;;;;;10476341;28;20207;-78
2021/12/12 18:03:13;;;;;;;109.97;42.20;;;0.30;99.90;;;;;;10521955;28;20754;-79
2021/12/12 18:09:11;;;;;;;104.53;40.30;;;0.30;99.90;;;;;;10490565;28;20209;-79
2021/12/12 18:14:45;;;;;;;109.60;41.47;;;0.30;99.90;;;;;;10476199;28;20449;-79
2021/12/12 18:20:37;;;;;;;109.90;44.93;;;0.30;99.90;;;;;;10521264;28;20233;-78
2021/12/12 18:26:07;;;;;;;99.97;38.60;;;0.30;99.90;;;;;;10504270;28;20579;-79
2021/12/12 18:31:41;;;;;;;115.93;44.57;;;0.30;99.90;;;;;;10506061;28;20537;-79
2021/12/12 18:37:07;;;;;;;141.93;53.23;;;0.20;99.90;;;;;;10506139;28;20204;-79
2021/12/12 18:42:36;;;;;;;112.53;44.63;;;0.20;99.90;;;;;;10520595;28;20420;-79
2021/12/12 18:48:04;;;;;;;129.17;47.20;;;0.20;99.90;;;;;;10502585;28;20199;-79
2021/12/12 18:53:34;;;;;;;118.67;42.17;;;0.30;99.90;;;;;;10503953;28;20206;-79
2021/12/12 18:58:57;;;;;;;113.10;40.27;;;0.20;99.90;;;;;;10505512;28;20200;-79
2021/12/12 19:04:24;;;;;;;104.07;37.10;;;0.20;99.90;;;;;;10500559;28;20421;-80
2021/12/12 19:09:49;;;;;;;102.37;37.37;;;0.10;99.90;;;;;;10504351;28;20199;-79
2021/12/12 19:15:22;;;;;;;106.50;41.47;;;0.20;99.90;;;;;;10487704;28;20258;-79
2021/12/12 19:20:56;;;;;;;119.63;44.53;;;0.20;99.90;;;;;;10501821;28;20548;-80
2021/12/12 19:26:22;;;;;;;119.43;46.67;;;0.10;99.90;;;;;;10519506;28;20229;-79
2021/12/12 19:31:48;;;;;;;96.87;36.73;;;0.10;99.90;;;;;;10505255;28;20199;-79
2021/12/12 19:37:15;;;;;;;99.43;38.77;;;0.10;99.90;;;;;;10504880;28;20207;-79
2021/12/12 19:42:41;;;;;;;108.17;39.97;;;0.10;99.90;;;;;;10514140;28;20241;-79
2021/12/12 19:48:24;;;;;;;95.43;36.30;;;0.10;99.90;;;;;;10518041;28;20202;-79
2021/12/12 19:54:23;;;;;;;93.00;35.37;;;0.20;99.90;;;;;;10484793;28;20357;-79
2021/12/12 19:59:48;;;;;;;98.30;38.80;;;0.20;99.90;;;;;;10517898;28;20545;-79
2021/12/12 20:05:13;;;;;;;94.43;38.23;;;0.20;99.90;;;;;;10522373;28;20206;-79
2021/12/12 20:10:40;;;;;;;100.63;38.30;;;0.20;99.90;;;;;;10522395;28;20256;-79
2021/12/12 20:16:04;;;;;;;93.67;35.37;;;0.20;99.90;;;;;;10525406;28;20202;-79
2021/12/12 20:21:34;;;;;;;98.83;37.77;;;0.30;99.90;;;;;;10526285;28;20225;-79
2021/12/12 20:27:12;;;;;;;105.50;38.97;;;0.30;99.90;;;;;;10510731;28;20206;-79
2021/12/12 20:32:38;;;;;;;90.57;35.53;;;0.30;99.90;;;;;;10525701;28;20249;-79
2021/12/12 20:38:08;;;;;;;84.87;33.17;;;0.30;99.90;;;;;;10525657;28;20268;-79
2021/12/12 20:43:40;;;;;;;86.70;34.20;;;0.30;99.90;;;;;;10494929;28;20252;-78
2021/12/12 20:49:09;;;;;;;80.60;33.77;;;0.30;99.90;;;;;;10507487;28;20203;-78
2021/12/12 20:54:57;;;;;;;70.43;30.63;;;0.30;99.90;;;;;;10525344;28;20442;-79
2021/12/12 21:00:32;;;;;;;69.97;29.63;;;0.40;99.90;;;;;;10488331;28;20226;-78
2021/12/12 21:06:02;;;;;;;116.87;40.00;;;0.40;99.90;;;;;;10506049;28;20211;-78
2021/12/12 21:11:35;;;;;;;98.17;40.73;;;0.50;99.90;;;;;;10523630;28;20206;-78
2021/12/12 21:17:04;;;;;;;84.33;35.90;;;0.40;99.90;;;;;;10523170;28;20200;-79
2021/12/12 21:22:43;;;;;;;70.30;31.80;;;0.30;99.90;;;;;;10509283;28;20344;-79
2021/12/12 21:28:19;;;;;;;66.57;29.97;;;0.30;99.90;;;;;;10494997;28;20488;-79
2021/12/12 21:33:55;;;;;;;76.23;31.07;;;0.40;99.90;;;;;;10509165;28;20282;-80
2021/12/12 21:39:26;;;;;;;73.03;31.47;;;0.30;99.90;;;;;;10488723;28;20231;-79
2021/12/12 21:44:53;;;;;;;79.63;36.50;;;0.30;99.90;;;;;;10478496;28;20429;-79
2021/12/12 21:50:35;;;;;;;72.40;32.57;;;0.40;99.90;;;;;;10523030;28;20195;-79
2021/12/12 21:56:06;;;;;;;72.70;29.43;;;0.30;99.90;;;;;;10522484;28;20225;-79
2021/12/12 22:01:46;;;;;;;68.83;29.97;;;0.40;99.90;;;;;;10504518;28;20227;-78
2021/12/12 22:07:10;;;;;;;68.17;29.63;;;0.50;99.90;;;;;;10504377;28;20205;-78
2021/12/12 22:12:36;;;;;;;68.10;30.93;;;0.50;99.90;;;;;;10492053;28;20205;-79
2021/12/12 22:18:01;;;;;;;59.70;29.33;;;0.50;99.90;;;;;;10490010;28;20206;-80
2021/12/12 22:23:25;;;;;;;62.03;28.83;;;0.50;99.90;;;;;;10506387;28;20238;-80
2021/12/12 22:28:50;;;;;;;79.17;32.03;;;0.60;99.90;;;;;;10489218;28;20203;-80
2021/12/12 22:34:16;;;;;;;70.70;29.63;;;0.50;99.90;;;;;;10521031;28;20199;-79
2021/12/12 22:39:46;;;;;;;70.87;30.30;;;0.40;99.90;;;;;;10502002;28;20779;-79
2021/12/12 22:45:11;;;;;;;75.07;30.33;;;0.30;99.90;;;;;;10520883;28;20218;-80
2021/12/12 22:50:57;;;;;;;72.13;28.40;;;0.30;99.90;;;;;;10488313;28;20248;-80
2021/12/12 22:56:23;;;;;;;72.13;28.90;;;0.30;99.90;;;;;;10520390;28;20224;-80
2021/12/12 23:02:05;;;;;;;72.87;29.63;;;0.30;99.90;;;;;;10486436;28;20219;-80
2021/12/12 23:07:35;;;;;;;68.50;28.13;;;0.30;99.90;;;;;;10502034;28;20485;-80
2021/12/12 23:13:18;;;;;;;67.70;28.13;;;0.40;99.90;;;;;;10510945;28;20205;-79
2021/12/12 23:19:02;;;;;;;71.70;29.00;;;0.30;99.90;;;;;;10502098;28;20209;-80
2021/12/12 23:24:32;;;;;;;68.40;28.83;;;0.30;99.90;;;;;;10501280;28;20531;-80
2021/12/12 23:29:59;;;;;;;74.33;29.63;;;0.30;99.90;;;;;;10487883;28;20209;-79
2021/12/12 23:35:27;;;;;;;71.37;28.70;;;0.30;99.90;;;;;;10490663;28;20491;-80
2021/12/12 23:40:59;;;;;;;69.53;28.93;;;0.30;99.90;;;;;;10497192;28;20235;-79
2021/12/12 23:46:32;;;;;;;69.97;27.50;;;0.40;99.90;;;;;;10513117;28;20205;-80
2021/12/12 23:51:59;;;;;;;64.10;26.80;;;0.40;99.90;;;;;;10527536;28;20266;-79
2021/12/12 23:57:24;;;;;;;66.50;28.77;;;0.40;99.90;;;;;;10527287;28;20506;-80
